sensor_id;sensor_type;location;lat;lon;timestamp;P1;durP1;ratioP1;P2;durP2;ratioP2
20104;SDS011;10212;42.714;23.310;2023-12-22T00:08:32;34.72;;;16.38;;
20104;SDS011;10212;42.714;23.310;2023-12-22T00:18:33;34.83;;;15.38;;
20104;SDS011;10212;42.714;23.310;2023-12-22T00:28:33;30.80;;;14.93;;
20104;SDS011;10212;42.714;23.310;2023-12-22T00:38:34;28.95;;;14.50;;
20104;SDS011;10212;42.714;23.310;2023-12-22T00:48:34;30.98;;;15.05;;
20104;SDS011;10212;42.714;23.310;2023-12-22T00:58:34;33.15;;;15.32;;
20104;SDS011;10212;42.714;23.310;2023-12-22T01:08:36;25.55;;;12.18;;
20104;SDS011;10212;42.714;23.310;2023-12-22T01:18:38;30.05;;;15.52;;
20104;SDS011;10212;42.714;23.310;2023-12-22T01:28:42;39.88;;;19.27;;
20104;SDS011;10212;42.714;23.310;2023-12-22T01:38:42;44.40;;;21.13;;
20104;SDS011;10212;42.714;23.310;2023-12-22T01:48:43;40.72;;;20.33;;
20104;SDS011;10212;42.714;23.310;2023-12-22T01:58:43;31.50;;;16.20;;
20104;SDS011;10212;42.714;23.310;2023-12-22T02:08:47;33.67;;;16.27;;
20104;SDS011;10212;42.714;23.310;2023-12-22T02:18:49;44.58;;;20.92;;
20104;SDS011;10212;42.714;23.310;2023-12-22T02:28:52;62.15;;;29.60;;
20104;SDS011;10212;42.714;23.310;2023-12-22T02:38:57;59.80;;;27.80;;
20104;SDS011;10212;42.714;23.310;2023-12-22T02:48:59;50.30;;;25.38;;
20104;SDS011;10212;42.714;23.310;2023-12-22T02:59:00;50.03;;;25.25;;
20104;SDS011;10212;42.714;23.310;2023-12-22T03:09:00;52.55;;;23.73;;
20104;SDS011;10212;42.714;23.310;2023-12-22T03:19:00;43.35;;;19.55;;
20104;SDS011;10212;42.714;23.310;2023-12-22T03:29:01;35.08;;;18.42;;
20104;SDS011;10212;42.714;23.310;2023-12-22T03:39:01;34.45;;;16.00;;
20104;SDS011;10212;42.714;23.310;2023-12-22T03:49:02;35.90;;;17.80;;
20104;SDS011;10212;42.714;23.310;2023-12-22T03:59:04;36.08;;;18.05;;
20104;SDS011;10212;42.714;23.310;2023-12-22T04:09:07;35.28;;;17.45;;
20104;SDS011;10212;42.714;23.310;2023-12-22T04:19:07;40.00;;;19.70;;
20104;SDS011;10212;42.714;23.310;2023-12-22T04:29:08;36.63;;;19.75;;
20104;SDS011;10212;42.714;23.310;2023-12-22T04:39:08;39.28;;;20.15;;
20104;SDS011;10212;42.714;23.310;2023-12-22T04:49:09;36.05;;;19.13;;
20104;SDS011;10212;42.714;23.310;2023-12-22T04:59:09;38.92;;;20.30;;
20104;SDS011;10212;42.714;23.310;2023-12-22T05:09:10;40.28;;;20.08;;
20104;SDS011;10212;42.714;23.310;2023-12-22T05:19:10;40.00;;;19.30;;
20104;SDS011;10212;42.714;23.310;2023-12-22T05:29:11;35.10;;;17.00;;
20104;SDS011;10212;42.714;23.310;2023-12-22T05:39:12;32.78;;;18.13;;
20104;SDS011;10212;42.714;23.310;2023-12-22T05:49:13;37.63;;;19.00;;
20104;SDS011;10212;42.714;23.310;2023-12-22T05:59:13;35.17;;;17.88;;
20104;SDS011;10212;42.714;23.310;2023-12-22T06:09:15;47.53;;;23.13;;
20104;SDS011;10212;42.714;23.310;2023-12-22T06:19:20;38.53;;;19.52;;
20104;SDS011;10212;42.714;23.310;2023-12-22T06:29:22;39.67;;;19.48;;
20104;SDS011;10212;42.714;23.310;2023-12-22T06:39:23;37.53;;;20.17;;
20104;SDS011;10212;42.714;23.310;2023-12-22T06:49:23;45.20;;;23.35;;
20104;SDS011;10212;42.714;23.310;2023-12-22T06:59:24;50.95;;;22.73;;
20104;SDS011;10212;42.714;23.310;2023-12-22T07:19:25;38.45;;;20.15;;
20104;SDS011;10212;42.714;23.310;2023-12-22T07:29:28;38.55;;;21.23;;
20104;SDS011;10212;42.714;23.310;2023-12-22T07:39:29;39.53;;;21.47;;
20104;SDS011;10212;42.714;23.310;2023-12-22T07:49:29;41.53;;;21.52;;
20104;SDS011;10212;42.714;23.310;2023-12-22T07:59:30;40.42;;;20.23;;
20104;SDS011;10212;42.714;23.310;2023-12-22T08:09:30;42.78;;;21.80;;
20104;SDS011;10212;42.714;23.310;2023-12-22T08:19:31;38.33;;;20.13;;
20104;SDS011;10212;42.714;23.310;2023-12-22T08:29:31;37.47;;;21.10;;
20104;SDS011;10212;42.714;23.310;2023-12-22T08:39:31;33.97;;;18.55;;
20104;SDS011;10212;42.714;23.310;2023-12-22T08:49:32;35.80;;;21.30;;
20104;SDS011;10212;42.714;23.310;2023-12-22T08:59:32;39.83;;;18.65;;
20104;SDS011;10212;42.714;23.310;2023-12-22T09:09:33;27.98;;;14.80;;
20104;SDS011;10212;42.714;23.310;2023-12-22T09:19:33;29.20;;;14.27;;
20104;SDS011;10212;42.714;23.310;2023-12-22T09:29:34;27.42;;;13.05;;
20104;SDS011;10212;42.714;23.310;2023-12-22T09:39:36;23.63;;;10.93;;
20104;SDS011;10212;42.714;23.310;2023-12-22T09:49:37;18.45;;;9.68;;
20104;SDS011;10212;42.714;23.310;2023-12-22T09:59:39;33.25;;;14.18;;
20104;SDS011;10212;42.714;23.310;2023-12-22T10:09:39;24.25;;;13.30;;
20104;SDS011;10212;42.714;23.310;2023-12-22T10:19:41;22.58;;;10.30;;
20104;SDS011;10212;42.714;23.310;2023-12-22T10:29:41;18.70;;;9.25;;
20104;SDS011;10212;42.714;23.310;2023-12-22T10:39:42;15.90;;;9.02;;
20104;SDS011;10212;42.714;23.310;2023-12-22T10:49:43;19.95;;;9.85;;
20104;SDS011;10212;42.714;23.310;2023-12-22T10:59:46;13.43;;;7.45;;
20104;SDS011;10212;42.714;23.310;2023-12-22T11:09:48;8.60;;;4.78;;
20104;SDS011;10212;42.714;23.310;2023-12-22T11:19:53;9.93;;;4.93;;
20104;SDS011;10212;42.714;23.310;2023-12-22T11:29:55;12.00;;;6.05;;
20104;SDS011;10212;42.714;23.310;2023-12-22T11:39:57;5.90;;;4.22;;
20104;SDS011;10212;42.714;23.310;2023-12-22T11:49:57;4.50;;;2.25;;
20104;SDS011;10212;42.714;23.310;2023-12-22T12:00:03;2.95;;;1.45;;
20104;SDS011;10212;42.714;23.310;2023-12-22T12:10:07;2.15;;;1.40;;
20104;SDS011;10212;42.714;23.310;2023-12-22T12:20:09;1.70;;;1.13;;
20104;SDS011;10212;42.714;23.310;2023-12-22T12:30:11;2.45;;;1.10;;
20104;SDS011;10212;42.714;23.310;2023-12-22T12:40:14;1.40;;;0.82;;
20104;SDS011;10212;42.714;23.310;2023-12-22T12:50:23;2.53;;;0.77;;
20104;SDS011;10212;42.714;23.310;2023-12-22T13:00:27;2.35;;;1.13;;
20104;SDS011;10212;42.714;23.310;2023-12-22T13:10:29;3.40;;;1.60;;
20104;SDS011;10212;42.714;23.310;2023-12-22T13:20:29;1.75;;;1.00;;
20104;SDS011;10212;42.714;23.310;2023-12-22T13:30:36;2.47;;;1.00;;
20104;SDS011;10212;42.714;23.310;2023-12-22T13:40:44;1.88;;;1.20;;
20104;SDS011;10212;42.714;23.310;2023-12-22T13:50:58;4.18;;;1.50;;
20104;SDS011;10212;42.714;23.310;2023-12-22T14:01:00;3.00;;;1.75;;
20104;SDS011;10212;42.714;23.310;2023-12-22T14:11:14;2.13;;;1.40;;
20104;SDS011;10212;42.714;23.310;2023-12-22T14:21:15;2.25;;;1.45;;
20104;SDS011;10212;42.714;23.310;2023-12-22T14:31:16;3.05;;;1.88;;
20104;SDS011;10212;42.714;23.310;2023-12-22T14:41:17;1.92;;;1.17;;
20104;SDS011;10212;42.714;23.310;2023-12-22T14:51:17;2.83;;;1.77;;
20104;SDS011;10212;42.714;23.310;2023-12-22T15:01:18;4.85;;;1.80;;
20104;SDS011;10212;42.714;23.310;2023-12-22T15:11:18;4.82;;;1.98;;
20104;SDS011;10212;42.714;23.310;2023-12-22T15:21:22;2.22;;;1.50;;
20104;SDS011;10212;42.714;23.310;2023-12-22T15:31:37;2.00;;;1.37;;
20104;SDS011;10212;42.714;23.310;2023-12-22T15:41:41;3.20;;;1.80;;
20104;SDS011;10212;42.714;23.310;2023-12-22T15:51:41;2.78;;;1.80;;
20104;SDS011;10212;42.714;23.310;2023-12-22T16:01:42;5.78;;;3.40;;
20104;SDS011;10212;42.714;23.310;2023-12-22T16:11:45;9.93;;;4.28;;
20104;SDS011;10212;42.714;23.310;2023-12-22T16:21:46;6.78;;;3.08;;
20104;SDS011;10212;42.714;23.310;2023-12-22T16:31:52;3.95;;;2.40;;
20104;SDS011;10212;42.714;23.310;2023-12-22T16:41:52;3.42;;;1.92;;
20104;SDS011;10212;42.714;23.310;2023-12-22T16:51:53;3.95;;;1.52;;
20104;SDS011;10212;42.714;23.310;2023-12-22T17:01:53;2.45;;;1.38;;
20104;SDS011;10212;42.714;23.310;2023-12-22T17:11:53;4.28;;;1.73;;
20104;SDS011;10212;42.714;23.310;2023-12-22T17:21:54;5.57;;;1.98;;
20104;SDS011;10212;42.714;23.310;2023-12-22T17:31:54;3.05;;;1.60;;
20104;SDS011;10212;42.714;23.310;2023-12-22T17:41:57;5.30;;;1.80;;
20104;SDS011;10212;42.714;23.310;2023-12-22T17:51:58;4.78;;;2.08;;
20104;SDS011;10212;42.714;23.310;2023-12-22T18:01:58;2.95;;;1.40;;
20104;SDS011;10212;42.714;23.310;2023-12-22T18:11:58;5.85;;;1.85;;
20104;SDS011;10212;42.714;23.310;2023-12-22T18:21:59;4.65;;;1.67;;
20104;SDS011;10212;42.714;23.310;2023-12-22T18:31:59;4.28;;;1.90;;
20104;SDS011;10212;42.714;23.310;2023-12-22T18:42:00;4.63;;;1.70;;
20104;SDS011;10212;42.714;23.310;2023-12-22T18:52:00;5.20;;;1.90;;
20104;SDS011;10212;42.714;23.310;2023-12-22T19:02:02;2.92;;;1.55;;
20104;SDS011;10212;42.714;23.310;2023-12-22T19:12:03;2.33;;;1.30;;
20104;SDS011;10212;42.714;23.310;2023-12-22T19:22:04;3.03;;;1.25;;
20104;SDS011;10212;42.714;23.310;2023-12-22T19:32:05;4.32;;;1.42;;
20104;SDS011;10212;42.714;23.310;2023-12-22T19:42:05;2.97;;;1.70;;
20104;SDS011;10212;42.714;23.310;2023-12-22T19:52:06;1.52;;;1.08;;
20104;SDS011;10212;42.714;23.310;2023-12-22T20:02:07;5.00;;;1.50;;
20104;SDS011;10212;42.714;23.310;2023-12-22T20:12:08;3.30;;;0.90;;
20104;SDS011;10212;42.714;23.310;2023-12-22T20:22:08;1.73;;;0.60;;
20104;SDS011;10212;42.714;23.310;2023-12-22T20:32:09;3.80;;;1.90;;
20104;SDS011;10212;42.714;23.310;2023-12-22T20:42:09;2.22;;;0.57;;
20104;SDS011;10212;42.714;23.310;2023-12-22T20:52:10;2.25;;;0.75;;
20104;SDS011;10212;42.714;23.310;2023-12-22T21:02:10;0.90;;;0.60;;
20104;SDS011;10212;42.714;23.310;2023-12-22T21:12:10;1.88;;;0.90;;
20104;SDS011;10212;42.714;23.310;2023-12-22T21:22:11;1.83;;;1.17;;
20104;SDS011;10212;42.714;23.310;2023-12-22T21:32:12;2.10;;;0.68;;
20104;SDS011;10212;42.714;23.310;2023-12-22T21:42:12;1.30;;;0.68;;
20104;SDS011;10212;42.714;23.310;2023-12-22T21:52:13;1.65;;;0.88;;
20104;SDS011;10212;42.714;23.310;2023-12-22T22:02:14;1.42;;;0.50;;
20104;SDS011;10212;42.714;23.310;2023-12-22T22:12:14;6.13;;;2.35;;
20104;SDS011;10212;42.714;23.310;2023-12-22T22:22:15;4.50;;;2.50;;
20104;SDS011;10212;42.714;23.310;2023-12-22T22:32:15;6.50;;;3.03;;
20104;SDS011;10212;42.714;23.310;2023-12-22T22:42:16;6.95;;;2.83;;
20104;SDS011;10212;42.714;23.310;2023-12-22T22:52:18;8.25;;;2.55;;
20104;SDS011;10212;42.714;23.310;2023-12-22T23:02:18;3.72;;;1.77;;
20104;SDS011;10212;42.714;23.310;2023-12-22T23:12:19;4.45;;;2.22;;
20104;SDS011;10212;42.714;23.310;2023-12-22T23:22:19;4.32;;;2.03;;
20104;SDS011;10212;42.714;23.310;2023-12-22T23:32:19;4.20;;;1.67;;
20104;SDS011;10212;42.714;23.310;2023-12-22T23:42:20;4.47;;;1.77;;
20104;SDS011;10212;42.714;23.310;2023-12-22T23:52:20;3.92;;;1.90;;
